Time;durP1;ratioP1;P1;durP2;ratioP2;P2;SDS_P1;SDS_P2;PMS_P1;PMS_P2;Temp;Humidity;BMP_temperature;BMP_pressure;BME280_temperature;BME280_humidity;BME280_pressure;Samples;Min_cycle;Max_cycle;Signal;HPM_P1;HPM_P2
2021/01/14 00:00:01;;;;;;;6.00;1.52;;;7.40;70.00;;;;;;5009316;28;20495;-67
2021/01/14 00:02:27;;;;;;;8.80;1.67;;;7.40;69.60;;;;;;5007041;28;20068;-67
2021/01/14 00:04:53;;;;;;;9.45;1.50;;;7.40;69.40;;;;;;5008326;28;20030;-67
2021/01/14 00:07:19;;;;;;;5.47;2.03;;;7.30;69.10;;;;;;5004215;28;20034;-67
2021/01/14 00:09:45;;;;;;;7.03;1.60;;;7.30;68.70;;;;;;5001253;28;20117;-68
2021/01/14 00:12:11;;;;;;;7.07;2.10;;;7.30;68.60;;;;;;5003499;28;20084;-68
2021/01/14 00:14:37;;;;;;;9.13;1.65;;;7.30;68.80;;;;;;5008201;28;20710;-67
2021/01/14 00:17:03;;;;;;;4.80;1.87;;;7.20;68.70;;;;;;4991143;28;20042;-67
2021/01/14 00:19:28;;;;;;;12.85;2.20;;;7.20;68.70;;;;;;5003277;28;20037;-68
2021/01/14 00:21:54;;;;;;;8.47;1.87;;;7.10;68.70;;;;;;5006289;28;20053;-67
2021/01/14 00:24:20;;;;;;;4.72;1.55;;;7.10;68.90;;;;;;4993940;28;20037;-67
2021/01/14 00:26:46;;;;;;;10.98;2.42;;;7.10;68.90;;;;;;4993823;28;20035;-67
2021/01/14 00:29:12;;;;;;;9.18;1.90;;;7.20;68.70;;;;;;5008260;28;20419;-67
2021/01/14 00:31:38;;;;;;;9.07;2.33;;;7.10;68.30;;;;;;5016770;28;20037;-68
2021/01/14 00:34:03;;;;;;;6.80;1.45;;;7.10;68.20;;;;;;5012909;28;20122;-67
2021/01/14 00:39:25;;;;;;;3.77;1.00;;;7.00;68.30;;;;;;5010416;28;20562;-67
2021/01/14 00:41:52;;;;;;;10.00;2.03;;;7.00;68.10;;;;;;5011090;28;20121;-68
2021/01/14 00:44:18;;;;;;;7.82;2.08;;;7.00;68.00;;;;;;5012667;28;20109;-67
2021/01/14 00:46:44;;;;;;;8.87;2.37;;;7.00;68.10;;;;;;4997183;28;20026;-68
2021/01/14 00:49:10;;;;;;;7.67;1.77;;;6.90;67.70;;;;;;4996846;28;20038;-67
2021/01/14 00:51:37;;;;;;;5.55;1.25;;;7.00;67.70;;;;;;5012487;28;20057;-68
2021/01/14 00:54:03;;;;;;;11.13;2.00;;;7.00;67.80;;;;;;5013110;28;20038;-68
2021/01/14 00:56:37;;;;;;;4.40;1.70;;;7.00;67.50;;;;;;5016691;28;20042;-68
2021/01/14 00:59:04;;;;;;;11.88;2.03;;;7.00;67.50;;;;;;5013126;28;20896;-68
2021/01/14 01:01:31;;;;;;;5.83;1.40;;;6.90;67.20;;;;;;5009278;28;20049;-68
2021/01/14 01:03:57;;;;;;;20.50;3.13;;;6.90;67.20;;;;;;4996939;28;20086;-68
2021/01/14 01:06:24;;;;;;;7.87;1.53;;;6.80;66.80;;;;;;5019487;28;20057;-68
2021/01/14 01:08:50;;;;;;;8.03;1.50;;;6.80;67.10;;;;;;5008919;28;20061;-68
2021/01/14 01:11:26;;;;;;;5.40;1.87;;;6.80;67.00;;;;;;5013614;28;20072;-68
2021/01/14 01:13:53;;;;;;;7.17;1.73;;;6.80;67.30;;;;;;4995890;28;20045;-68
2021/01/14 01:16:19;;;;;;;7.20;1.57;;;6.90;67.30;;;;;;5014310;28;20392;-68
2021/01/14 01:18:45;;;;;;;12.77;1.63;;;6.90;67.10;;;;;;5014549;28;20495;-68
2021/01/14 01:21:11;;;;;;;8.10;2.17;;;6.90;66.60;;;;;;5006717;28;20053;-68
2021/01/14 01:23:37;;;;;;;24.60;3.43;;;6.80;66.80;;;;;;5010916;28;20042;-68
2021/01/14 01:26:03;;;;;;;5.70;1.70;;;6.80;67.00;;;;;;5009232;28;20128;-68
2021/01/14 01:28:29;;;;;;;5.80;1.30;;;6.80;67.20;;;;;;5007611;28;20128;-68
2021/01/14 01:30:54;;;;;;;5.13;1.23;;;6.90;67.20;;;;;;5015053;28;20117;-68
2021/01/14 01:33:20;;;;;;;6.43;1.93;;;6.90;67.20;;;;;;5014155;28;20045;-68
2021/01/14 01:35:50;;;;;;;5.63;1.20;;;6.90;67.00;;;;;;5015326;28;20061;-68
2021/01/14 01:38:16;;;;;;;7.87;1.97;;;7.90;67.20;;;;;;5010147;28;20044;-68
2021/01/14 01:40:42;;;;;;;4.60;1.20;;;6.80;66.50;;;;;;5010581;28;20038;-68
2021/01/14 01:43:07;;;;;;;9.98;1.55;;;6.80;66.70;;;;;;5011242;28;20068;-68
2021/01/14 01:45:33;;;;;;;4.30;1.10;;;6.80;66.60;;;;;;4995147;28;20076;-68
2021/01/14 01:47:59;;;;;;;11.67;3.07;;;6.70;66.60;;;;;;5010160;28;20034;-68
2021/01/14 01:50:26;;;;;;;6.83;1.43;;;6.60;66.90;;;;;;5010815;28;20034;-68
2021/01/14 01:52:53;;;;;;;8.80;1.57;;;6.50;67.20;;;;;;5011669;28;20446;-68
2021/01/14 01:55:19;;;;;;;9.35;2.13;;;6.50;67.50;;;;;;5013032;28;20024;-67
2021/01/14 01:57:45;;;;;;;6.33;1.30;;;6.50;67.50;;;;;;5007532;28;20121;-68
2021/01/14 02:00:11;;;;;;;5.90;1.30;;;6.40;67.30;;;;;;4997952;28;20030;-68
2021/01/14 02:02:36;;;;;;;6.20;1.83;;;6.40;67.30;;;;;;5002832;28;20031;-67
2021/01/14 02:05:03;;;;;;;5.73;1.30;;;6.40;67.40;;;;;;5009321;28;20314;-68
2021/01/14 02:07:45;;;;;;;41.40;3.30;;;6.50;67.30;;;;;;5011051;28;20038;-67
2021/01/14 02:10:11;;;;;;;9.17;2.07;;;6.50;67.00;;;;;;5006061;28;20044;-68
2021/01/14 02:12:44;;;;;;;7.07;1.40;;;6.40;66.50;;;;;;5003004;28;20038;-67
2021/01/14 02:15:12;;;;;;;4.07;1.05;;;6.40;66.20;;;;;;5013144;28;20037;-68
2021/01/14 02:17:37;;;;;;;5.40;1.40;;;6.40;66.30;;;;;;5011811;28;20034;-68
2021/01/14 02:20:04;;;;;;;7.20;1.40;;;6.40;66.20;;;;;;5021349;28;20041;-67
2021/01/14 02:22:37;;;;;;;8.70;1.73;;;6.40;66.30;;;;;;5018723;28;20133;-68
2021/01/14 02:25:22;;;;;;;7.60;1.48;;;6.30;66.10;;;;;;5009406;28;20026;-67
2021/01/14 02:27:49;;;;;;;4.23;1.20;;;6.30;66.00;;;;;;5010902;28;20153;-67
2021/01/14 02:30:16;;;;;;;7.67;1.47;;;6.30;66.00;;;;;;5009548;28;20080;-68
2021/01/14 02:32:43;;;;;;;5.63;1.73;;;6.30;65.90;;;;;;5012333;28;20058;-67
2021/01/14 02:35:09;;;;;;;4.63;1.30;;;6.40;66.20;;;;;;5007864;28;20140;-68
2021/01/14 02:37:35;;;;;;;6.87;1.43;;;6.40;66.20;;;;;;5011782;28;20030;-67
2021/01/14 02:40:00;;;;;;;9.87;1.47;;;6.40;66.00;;;;;;5009773;28;20045;-68
2021/01/14 02:42:26;;;;;;;3.80;1.43;;;6.40;65.70;;;;;;5004844;28;20502;-67
2021/01/14 02:44:51;;;;;;;6.60;1.63;;;6.40;65.50;;;;;;4997951;28;20030;-67
2021/01/14 02:47:18;;;;;;;8.43;2.03;;;6.30;65.70;;;;;;5012285;28;20087;-67
2021/01/14 02:50:01;;;;;;;8.63;1.77;;;6.30;65.60;;;;;;5005004;28;20030;-68
2021/01/14 02:52:28;;;;;;;10.15;2.60;;;6.20;65.70;;;;;;5010036;28;20538;-67
2021/01/14 02:54:56;;;;;;;10.93;1.50;;;6.30;66.00;;;;;;5009255;28;20029;-68
2021/01/14 02:57:24;;;;;;;7.33;1.60;;;6.30;65.80;;;;;;5011454;28;20052;-67
2021/01/14 02:59:52;;;;;;;7.53;1.97;;;6.30;66.00;;;;;;5007021;28;20045;-68
2021/01/14 03:02:18;;;;;;;6.90;1.90;;;6.40;66.10;;;;;;4995910;28;20121;-67
2021/01/14 03:04:44;;;;;;;7.60;1.90;;;6.40;65.90;;;;;;4976670;28;20129;-67
2021/01/14 03:07:09;;;;;;;7.47;1.53;;;6.50;65.80;;;;;;5009641;28;20476;-67
2021/01/14 03:09:35;;;;;;;3.63;1.30;;;6.50;65.60;;;;;;5010262;28;20056;-67
2021/01/14 03:12:00;;;;;;;3.53;1.53;;;6.50;65.50;;;;;;5004867;28;20071;-68
2021/01/14 03:14:26;;;;;;;7.53;1.83;;;6.50;65.70;;;;;;4993718;28;20140;-68
2021/01/14 03:16:52;;;;;;;6.27;1.23;;;6.40;65.30;;;;;;4994150;28;20097;-67
2021/01/14 03:19:17;;;;;;;6.37;1.97;;;6.40;65.30;;;;;;4993839;28;20038;-68
2021/01/14 03:21:43;;;;;;;6.57;1.50;;;6.30;65.40;;;;;;5011045;28;20045;-67
2021/01/14 03:24:08;;;;;;;8.40;1.50;;;6.30;65.30;;;;;;5006128;28;20499;-67
2021/01/14 03:26:36;;;;;;;5.40;1.37;;;6.20;65.30;;;;;;4996869;28;20044;-67
2021/01/14 03:29:02;;;;;;;16.23;2.93;;;6.10;65.50;;;;;;5009397;28;20510;-68
2021/01/14 03:31:27;;;;;;;8.40;1.30;;;6.10;65.80;;;;;;5010973;28;20030;-67
2021/01/14 03:33:53;;;;;;;4.27;1.70;;;6.00;66.00;;;;;;5007378;28;20041;-68
2021/01/14 03:36:19;;;;;;;9.10;1.10;;;6.00;66.10;;;;;;5003706;28;20100;-68
2021/01/14 03:38:46;;;;;;;3.37;1.30;;;6.00;66.20;;;;;;5010722;28;20472;-67
2021/01/14 03:41:17;;;;;;;8.53;1.70;;;6.00;66.40;;;;;;5009683;28;20129;-67
2021/01/14 03:43:43;;;;;;;7.77;1.60;;;6.00;66.40;;;;;;5011106;28;20029;-67
2021/01/14 03:46:13;;;;;;;3.23;1.07;;;5.90;66.30;;;;;;4999107;28;20081;-67
2021/01/14 03:48:44;;;;;;;4.47;1.33;;;5.90;66.40;;;;;;4989309;28;20669;-67
2021/01/14 03:51:16;;;;;;;7.23;1.33;;;5.90;66.50;;;;;;5007453;28;20472;-68
2021/01/14 03:53:42;;;;;;;7.27;1.47;;;6.00;66.60;;;;;;5008152;28;20041;-67
2021/01/14 03:56:08;;;;;;;7.50;1.77;;;6.00;66.40;;;;;;5009821;28;20810;-67
2021/01/14 03:58:34;;;;;;;7.20;1.10;;;6.10;66.40;;;;;;5009824;28;20064;-68
2021/01/14 04:01:00;;;;;;;5.37;1.43;;;6.10;66.20;;;;;;4990973;28;20042;-68
2021/01/14 04:03:26;;;;;;;7.77;1.50;;;6.10;66.10;;;;;;5004353;28;20439;-67
2021/01/14 04:05:51;;;;;;;6.00;1.13;;;6.10;66.20;;;;;;5008214;28;20042;-67
2021/01/14 04:08:17;;;;;;;5.37;1.10;;;6.20;66.20;;;;;;5010386;28;20522;-67
2021/01/14 04:10:43;;;;;;;6.40;1.70;;;6.20;66.20;;;;;;5009858;28;20056;-67
2021/01/14 04:13:08;;;;;;;20.53;2.13;;;6.20;66.10;;;;;;5009169;28;20084;-68
2021/01/14 04:15:34;;;;;;;5.77;1.27;;;6.20;66.10;;;;;;5007858;28;20369;-68
2021/01/14 04:17:59;;;;;;;4.30;1.10;;;6.20;66.10;;;;;;5008609;28;20076;-69
2021/01/14 04:20:25;;;;;;;4.90;1.17;;;6.30;66.20;;;;;;5007640;28;20030;-67
2021/01/14 04:22:50;;;;;;;5.63;1.30;;;6.30;66.10;;;;;;5008932;28;20041;-68
2021/01/14 04:25:16;;;;;;;8.53;1.60;;;6.40;66.00;;;;;;5000988;28;20081;-67
2021/01/14 04:27:42;;;;;;;5.70;1.17;;;6.50;65.90;;;;;;5003647;28;20034;-68
2021/01/14 04:30:10;;;;;;;4.13;1.63;;;6.50;65.70;;;;;;5007335;28;20053;-68
2021/01/14 04:32:35;;;;;;;7.17;2.17;;;6.60;65.50;;;;;;5009290;28;20041;-68
2021/01/14 04:35:01;;;;;;;5.53;1.50;;;6.60;65.30;;;;;;4996419;28;20049;-67
2021/01/14 04:37:27;;;;;;;4.27;1.90;;;6.60;65.10;;;;;;5009323;28;20091;-66
2021/01/14 04:39:52;;;;;;;3.13;0.90;;;6.60;64.80;;;;;;5007024;28;20058;-66
2021/01/14 04:42:20;;;;;;;6.30;1.33;;;6.70;64.80;;;;;;4990212;28;20130;-66
2021/01/14 04:44:45;;;;;;;7.50;1.10;;;6.70;64.50;;;;;;4989607;28;20029;-66
2021/01/14 04:47:15;;;;;;;5.40;1.10;;;6.70;64.60;;;;;;4989648;28;20034;-66
2021/01/14 04:49:44;;;;;;;7.73;1.40;;;6.70;64.70;;;;;;5006414;28;20336;-66
2021/01/14 04:52:17;;;;;;;14.10;2.10;;;6.60;64.80;;;;;;5006114;28;20049;-66
2021/01/14 04:54:44;;;;;;;6.15;1.48;;;6.50;64.90;;;;;;5008833;28;20018;-66
2021/01/14 04:57:21;;;;;;;5.80;1.47;;;6.50;65.20;;;;;;5006706;28;20041;-67
2021/01/14 04:59:52;;;;;;;3.60;1.33;;;6.50;65.40;;;;;;5008559;28;20096;-67
2021/01/14 05:02:22;;;;;;;5.20;1.20;;;6.40;65.40;;;;;;5007228;28;20034;-67
2021/01/14 05:04:53;;;;;;;10.60;1.57;;;6.40;65.50;;;;;;5007174;28;20076;-67
2021/01/14 05:07:32;;;;;;;5.33;1.70;;;6.30;65.70;;;;;;5009747;28;20380;-67
2021/01/14 05:10:05;;;;;;;4.47;1.60;;;6.20;65.90;;;;;;5000667;28;20110;-67
2021/01/14 05:12:33;;;;;;;6.25;1.98;;;6.10;66.10;;;;;;5009080;28;20034;-67
2021/01/14 05:15:00;;;;;;;6.73;1.83;;;6.00;66.40;;;;;;5012155;28;20121;-67
2021/01/14 05:17:27;;;;;;;8.00;2.30;;;6.00;66.70;;;;;;5013408;28;20128;-67
2021/01/14 05:19:55;;;;;;;3.67;1.30;;;6.00;66.70;;;;;;5010387;28;20072;-67
2021/01/14 05:22:24;;;;;;;13.03;3.77;;;6.00;66.80;;;;;;5009798;28;20046;-67
2021/01/14 05:25:04;;;;;;;2.13;0.90;;;6.10;66.80;;;;;;5013011;28;20482;-67
2021/01/14 05:27:29;;;;;;;2.30;0.80;;;6.20;66.70;;;;;;5013669;28;20022;-67
2021/01/14 05:30:09;;;;;;;5.10;1.20;;;6.30;66.50;;;;;;5010424;28;20192;-67
2021/01/14 05:32:35;;;;;;;11.00;2.60;;;6.40;66.50;;;;;;4994603;28;20073;-67
2021/01/14 05:35:05;;;;;;;5.53;1.10;;;6.50;66.40;;;;;;5005998;28;20365;-67
2021/01/14 05:37:36;;;;;;;3.77;1.60;;;6.50;66.20;;;;;;5011745;28;20053;-67
2021/01/14 05:40:04;;;;;;;5.30;1.73;;;6.50;66.00;;;;;;5005208;28;20038;-67
2021/01/14 05:42:30;;;;;;;8.00;1.77;;;6.50;66.00;;;;;;4994638;28;20120;-67
2021/01/14 05:44:56;;;;;;;5.07;1.30;;;6.60;66.00;;;;;;5000080;28;20130;-67
2021/01/14 05:47:24;;;;;;;8.70;2.10;;;6.60;65.90;;;;;;5004295;28;20041;-67
2021/01/14 05:49:57;;;;;;;3.40;1.23;;;6.60;65.80;;;;;;5004831;28;20057;-67
2021/01/14 05:52:24;;;;;;;4.13;1.00;;;6.60;65.90;;;;;;4999547;28;20096;-67
2021/01/14 05:55:04;;;;;;;7.77;1.80;;;6.60;65.70;;;;;;5012767;28;20033;-67
2021/01/14 05:57:40;;;;;;;4.27;1.43;;;6.60;65.80;;;;;;5010643;28;20598;-67
2021/01/14 06:00:14;;;;;;;6.70;2.00;;;6.60;65.80;;;;;;5000856;28;20113;-67
2021/01/14 06:02:41;;;;;;;5.10;1.30;;;6.70;65.80;;;;;;5010332;28;20531;-67
2021/01/14 06:05:27;;;;;;;5.30;1.53;;;6.60;65.80;;;;;;5012370;28;20040;-67
2021/01/14 06:07:54;;;;;;;4.53;1.27;;;6.60;65.90;;;;;;5008577;28;20627;-67
2021/01/14 06:10:35;;;;;;;5.40;0.90;;;6.70;66.00;;;;;;5010510;28;20031;-68
2021/01/14 06:13:01;;;;;;;4.30;1.47;;;6.70;66.00;;;;;;4993344;28;20461;-68
2021/01/14 06:15:27;;;;;;;5.03;1.40;;;6.70;65.90;;;;;;5010688;28;20076;-67
2021/01/14 06:18:01;;;;;;;10.33;1.67;;;6.70;65.90;;;;;;5009813;28;20179;-67
2021/01/14 06:20:27;;;;;;;6.17;1.50;;;6.70;65.90;;;;;;5011180;28;20046;-68
2021/01/14 06:22:56;;;;;;;7.73;1.20;;;6.70;65.90;;;;;;5008760;28;20041;-67
2021/01/14 06:25:22;;;;;;;5.63;1.13;;;6.70;65.80;;;;;;4990107;28;20462;-68
2021/01/14 06:27:55;;;;;;;2.10;1.07;;;6.70;65.90;;;;;;4995986;28;20034;-67
2021/01/14 06:30:21;;;;;;;;;;;6.60;66.40;;;;;;5011663;28;20022;-67
2021/01/14 06:33:00;;;;;;;6.27;1.20;;;6.70;65.80;;;;;;5011434;28;19964;-67
2021/01/14 06:35:27;;;;;;;8.03;2.27;;;6.70;65.90;;;;;;5011644;28;20026;-67
2021/01/14 06:37:55;;;;;;;3.70;1.43;;;6.60;66.00;;;;;;5010602;28;20698;-68
2021/01/14 06:40:27;;;;;;;7.57;1.67;;;6.70;66.20;;;;;;5006639;28;20042;-68
2021/01/14 06:42:56;;;;;;;6.20;1.33;;;6.70;66.10;;;;;;5010662;28;20045;-67
2021/01/14 06:45:23;;;;;;;8.77;1.50;;;6.60;66.00;;;;;;5010833;28;20060;-68
2021/01/14 06:47:58;;;;;;;4.90;1.33;;;6.60;66.10;;;;;;5002661;28;20050;-67
2021/01/14 06:50:27;;;;;;;4.77;2.17;;;6.60;66.10;;;;;;5008649;28;20080;-67
2021/01/14 06:53:12;;;;;;;6.47;1.50;;;6.60;66.20;;;;;;5003196;28;20468;-67
2021/01/14 06:55:39;;;;;;;4.07;1.80;;;6.60;66.20;;;;;;5010566;28;20103;-67
2021/01/14 06:58:09;;;;;;;10.20;2.17;;;6.60;66.20;;;;;;5009781;28;20038;-67
2021/01/14 07:00:42;;;;;;;7.17;1.60;;;6.60;66.20;;;;;;5007429;28;20612;-67
2021/01/14 07:03:14;;;;;;;5.20;1.75;;;6.60;66.20;;;;;;4992420;28;20034;-67
2021/01/14 07:05:52;;;;;;;10.47;2.10;;;6.60;66.20;;;;;;5007771;28;20026;-67
2021/01/14 07:08:35;;;;;;;6.43;1.33;;;6.50;66.10;;;;;;5002672;28;20099;-68
2021/01/14 07:11:06;;;;;;;7.60;1.23;;;6.50;66.20;;;;;;5009176;28;20076;-67
2021/01/14 07:13:40;;;;;;;5.90;1.40;;;6.60;66.20;;;;;;5004562;28;20797;-68
2021/01/14 07:16:07;;;;;;;3.13;0.93;;;6.60;66.30;;;;;;5010755;28;20097;-67
2021/01/14 07:18:34;;;;;;;4.70;1.47;;;6.60;66.50;;;;;;5010602;28;20463;-67
2021/01/14 07:21:16;;;;;;;6.53;1.93;;;6.50;66.40;;;;;;5011681;28;20030;-68
2021/01/14 07:23:56;;;;;;;5.10;1.30;;;6.50;66.40;;;;;;5009150;28;20124;-68
2021/01/14 07:26:22;;;;;;;6.70;2.20;;;6.50;66.40;;;;;;5009679;28;20033;-68
2021/01/14 07:28:50;;;;;;;5.17;1.73;;;6.50;66.40;;;;;;4993387;28;20049;-68
2021/01/14 07:31:26;;;;;;;5.27;1.63;;;6.60;66.50;;;;;;5009469;28;20063;-69
2021/01/14 07:33:53;;;;;;;9.50;2.47;;;6.60;66.40;;;;;;5006301;28;20045;-68
2021/01/14 07:36:24;;;;;;;5.47;1.60;;;6.50;66.40;;;;;;5009757;28;20416;-69
2021/01/14 07:38:52;;;;;;;7.30;1.50;;;6.40;66.20;;;;;;5009218;28;20029;-69
2021/01/14 07:41:19;;;;;;;6.00;2.10;;;6.40;66.50;;;;;;5002605;28;20026;-69
2021/01/14 07:43:45;;;;;;;7.53;1.77;;;6.30;66.50;;;;;;4991239;28;20114;-68
2021/01/14 07:46:30;;;;;;;5.80;2.33;;;6.30;66.70;;;;;;5006093;28;20058;-68
2021/01/14 07:48:56;;;;;;;5.57;1.63;;;6.30;66.70;;;;;;4989052;28;20124;-69
2021/01/14 07:51:24;;;;;;;4.60;1.60;;;6.30;66.60;;;;;;4996050;28;20117;-69
2021/01/14 07:54:07;;;;;;;11.43;3.67;;;6.30;66.60;;;;;;5007369;28;20119;-68
2021/01/14 07:56:52;;;;;;;6.70;2.63;;;6.30;66.40;;;;;;5010492;28;20029;-68
2021/01/14 07:59:28;;;;;;;5.93;2.20;;;6.20;66.30;;;;;;5018822;28;20032;-69
2021/01/14 08:02:04;;;;;;;9.17;2.63;;;6.20;66.40;;;;;;5005965;28;20037;-68
2021/01/14 08:04:29;;;;;;;5.87;1.90;;;6.20;66.50;;;;;;5008220;28;20092;-69
2021/01/14 08:06:55;;;;;;;6.43;2.00;;;6.20;66.40;;;;;;5007137;28;20515;-68
2021/01/14 08:09:22;;;;;;;5.63;1.73;;;6.10;66.40;;;;;;5008174;28;20076;-68
2021/01/14 08:11:47;;;;;;;5.10;1.40;;;6.20;66.40;;;;;;5005097;28;20038;-68
2021/01/14 08:14:22;;;;;;;3.97;1.53;;;6.20;66.30;;;;;;5010010;28;20060;-68
2021/01/14 08:16:51;;;;;;;4.27;1.30;;;6.20;66.30;;;;;;5007167;28;20037;-68
2021/01/14 08:19:29;;;;;;;5.13;1.87;;;6.20;66.20;;;;;;5013525;28;20545;-69
2021/01/14 08:22:06;;;;;;;9.90;2.53;;;6.30;66.10;;;;;;5011043;28;20034;-69
2021/01/14 08:24:51;;;;;;;4.27;1.40;;;6.30;66.00;;;;;;5002404;28;20053;-68
2021/01/14 08:27:24;;;;;;;7.70;1.97;;;6.30;66.00;;;;;;5010146;28;20030;-68
2021/01/14 08:30:15;;;;;;;8.07;2.30;;;6.30;66.00;;;;;;5004895;28;20073;-68
2021/01/14 08:32:59;;;;;;;6.53;2.30;;;6.30;65.90;;;;;;4998071;28;20049;-68
2021/01/14 08:35:26;;;;;;;7.53;2.03;;;6.30;65.90;;;;;;4995119;28;20703;-68
2021/01/14 08:37:55;;;;;;;5.73;2.33;;;6.30;66.00;;;;;;5004610;28;20030;-68
2021/01/14 08:40:25;;;;;;;7.87;2.40;;;6.40;65.90;;;;;;5007668;28;20060;-68
2021/01/14 08:43:05;;;;;;;7.40;2.50;;;6.30;65.70;;;;;;5009619;28;20088;-68
2021/01/14 08:45:35;;;;;;;7.63;2.47;;;6.30;65.80;;;;;;4999538;28;20419;-68
2021/01/14 08:48:07;;;;;;;7.47;2.00;;;6.40;65.90;;;;;;5010807;28;20375;-69
2021/01/14 08:50:36;;;;;;;6.67;1.90;;;6.40;65.70;;;;;;5012416;28;20037;-68
2021/01/14 08:53:04;;;;;;;7.73;2.23;;;6.50;65.60;;;;;;5005326;28;20034;-68
2021/01/14 08:55:30;;;;;;;8.53;1.90;;;6.60;65.30;;;;;;5009147;28;20041;-68
2021/01/14 08:57:57;;;;;;;4.10;1.63;;;6.60;64.60;;;;;;5001610;28;20472;-68
2021/01/14 09:00:24;;;;;;;6.67;2.10;;;6.60;64.70;;;;;;5011590;28;20053;-68
2021/01/14 09:02:49;;;;;;;8.43;1.97;;;6.60;64.50;;;;;;5012868;28;20092;-68
2021/01/14 09:05:15;;;;;;;7.67;2.57;;;6.60;64.80;;;;;;5011455;28;20037;-68
2021/01/14 09:07:49;;;;;;;7.40;1.93;;;6.60;64.90;;;;;;5012139;28;20065;-67
2021/01/14 09:10:14;;;;;;;13.88;4.68;;;6.80;64.90;;;;;;5011397;28;20129;-68
2021/01/14 09:12:41;;;;;;;7.83;2.50;;;7.00;64.10;;;;;;5009456;28;20113;-68
2021/01/14 09:15:07;;;;;;;9.33;2.63;;;7.10;63.50;;;;;;5006254;28;20045;-67
2021/01/14 09:17:33;;;;;;;7.80;2.40;;;7.20;63.20;;;;;;5012446;28;20130;-68
2021/01/14 09:19:59;;;;;;;10.93;3.83;;;7.30;63.00;;;;;;5005672;28;20039;-68
2021/01/14 09:22:26;;;;;;;7.13;2.53;;;7.40;62.90;;;;;;5006484;28;20041;-68
2021/01/14 09:24:52;;;;;;;6.33;1.83;;;7.80;62.60;;;;;;5010913;28;20133;-68
2021/01/14 09:27:18;;;;;;;5.63;1.77;;;7.40;62.40;;;;;;5002217;28;20114;-68
2021/01/14 09:29:44;;;;;;;9.75;2.67;;;7.40;61.80;;;;;;4993440;28;20054;-68
2021/01/14 09:32:13;;;;;;;7.00;2.37;;;7.40;61.70;;;;;;5009990;28;20034;-68
2021/01/14 09:34:39;;;;;;;6.43;2.22;;;7.40;61.20;;;;;;5009268;28;20551;-67
2021/01/14 09:37:16;;;;;;;7.10;2.58;;;7.40;61.10;;;;;;5012248;28;20109;-68
2021/01/14 09:39:41;;;;;;;13.00;2.60;;;7.50;61.00;;;;;;5008536;28;20037;-68
2021/01/14 09:42:07;;;;;;;8.30;2.57;;;7.40;60.40;;;;;;5012525;28;20041;-68
2021/01/14 09:44:33;;;;;;;11.37;2.60;;;7.40;60.70;;;;;;5011959;28;20080;-68
2021/01/14 09:46:59;;;;;;;10.07;2.40;;;7.30;60.50;;;;;;5010168;28;20034;-68
2021/01/14 09:49:27;;;;;;;10.47;3.10;;;7.30;60.60;;;;;;5009665;28;20030;-68
2021/01/14 09:51:53;;;;;;;7.50;2.83;;;7.20;60.60;;;;;;5012933;28;20037;-68
2021/01/14 09:54:20;;;;;;;8.23;2.67;;;7.30;60.70;;;;;;5012376;28;20034;-68
2021/01/14 09:56:56;;;;;;;10.70;4.27;;;7.50;60.60;;;;;;5003330;28;20034;-67
2021/01/14 09:59:41;;;;;;;12.27;3.77;;;7.60;60.20;;;;;;5005216;28;20039;-68
2021/01/14 10:02:24;;;;;;;7.43;2.63;;;7.70;60.20;;;;;;5004607;28;20460;-68
2021/01/14 10:05:05;;;;;;;9.02;2.53;;;7.80;59.90;;;;;;5011418;28;20522;-67
2021/01/14 10:07:34;;;;;;;9.20;2.58;;;7.80;59.30;;;;;;5010616;28;20032;-68
2021/01/14 10:10:00;;;;;;;8.40;2.35;;;7.80;59.40;;;;;;5011595;28;20165;-68
2021/01/14 10:12:26;;;;;;;10.57;2.80;;;7.70;59.10;;;;;;5012245;28;20439;-68
2021/01/14 10:15:12;;;;;;;11.27;3.05;;;7.80;59.50;;;;;;5011664;28;20087;-68
2021/01/14 10:17:39;;;;;;;10.93;3.10;;;7.80;59.50;;;;;;4998088;28;20382;-68
2021/01/14 10:20:06;;;;;;;10.50;2.50;;;7.80;59.60;;;;;;5008481;28;20164;-68
2021/01/14 10:22:34;;;;;;;9.13;2.83;;;7.90;59.00;;;;;;4993675;28;20042;-68
2021/01/14 10:25:07;;;;;;;6.80;2.50;;;7.80;58.40;;;;;;5011851;28;20033;-68
2021/01/14 10:27:33;;;;;;;15.07;3.88;;;7.70;58.50;;;;;;5006820;28;20030;-68
2021/01/14 10:29:59;;;;;;;9.02;2.95;;;7.70;59.00;;;;;;5006222;28;20129;-69
2021/01/14 10:32:25;;;;;;;6.90;3.27;;;7.60;58.90;;;;;;5009496;28;20022;-68
2021/01/14 10:34:53;;;;;;;7.53;2.53;;;7.50;58.90;;;;;;5003325;28;20450;-68
2021/01/14 10:37:23;;;;;;;8.25;2.40;;;7.30;59.10;;;;;;5004237;28;20038;-69
2021/01/14 10:39:50;;;;;;;6.27;2.50;;;7.30;59.50;;;;;;5021364;28;20030;-68
2021/01/14 10:42:31;;;;;;;6.43;2.70;;;7.20;59.50;;;;;;5001895;28;20077;-68
2021/01/14 10:45:08;;;;;;;9.75;3.00;;;7.10;59.90;;;;;;5008388;28;20095;-68
2021/01/14 10:47:41;;;;;;;8.83;2.30;;;7.00;60.10;;;;;;5011075;28;20088;-68
2021/01/14 10:50:26;;;;;;;5.45;2.28;;;7.10;60.30;;;;;;5010724;28;20133;-68
2021/01/14 10:52:59;;;;;;;9.57;2.83;;;7.10;60.30;;;;;;4996808;28;20079;-68
2021/01/14 10:55:29;;;;;;;9.23;4.10;;;7.10;60.30;;;;;;5011149;28;20044;-68
2021/01/14 10:57:56;;;;;;;8.13;3.23;;;7.00;60.50;;;;;;5011960;28;20033;-68
2021/01/14 11:00:24;;;;;;;14.33;5.43;;;6.80;60.70;;;;;;5006687;28;20129;-68
2021/01/14 11:03:13;;;;;;;12.67;3.70;;;6.70;61.10;;;;;;5011071;28;20579;-68
2021/01/14 11:05:41;;;;;;;12.83;4.87;;;6.60;61.50;;;;;;5010578;28;20029;-68
2021/01/14 11:08:20;;;;;;;8.90;3.53;;;6.60;62.00;;;;;;5009620;28;20439;-68
2021/01/14 11:10:59;;;;;;;16.43;5.47;;;6.70;62.10;;;;;;5022624;28;20072;-67
2021/01/14 11:13:54;;;;;;;11.27;4.00;;;6.80;61.90;;;;;;5008861;28;20491;-68
2021/01/14 11:16:22;;;;;;;14.53;4.73;;;6.90;61.60;;;;;;5010850;28;20440;-68
2021/01/14 11:18:52;;;;;;;10.03;3.50;;;7.00;61.60;;;;;;5009712;28;20104;-68
2021/01/14 11:21:25;;;;;;;12.93;4.07;;;7.00;61.40;;;;;;5025711;28;20030;-68
2021/01/14 11:23:51;;;;;;;12.00;4.07;;;7.10;61.10;;;;;;5004147;28;20042;-68
2021/01/14 11:26:18;;;;;;;8.13;4.00;;;7.20;60.90;;;;;;5002045;28;20030;-68
2021/01/14 11:28:45;;;;;;;9.23;3.37;;;7.30;60.90;;;;;;5010717;28;20081;-68
2021/01/14 11:31:15;;;;;;;17.20;4.40;;;7.40;60.60;;;;;;5000595;28;20033;-68
2021/01/14 11:33:42;;;;;;;7.43;3.50;;;7.20;60.50;;;;;;5008523;28;20089;-68
2021/01/14 11:36:08;;;;;;;10.57;4.40;;;7.10;60.70;;;;;;4984572;28;20034;-68
2021/01/14 11:38:34;;;;;;;18.80;4.93;;;7.00;60.70;;;;;;5008566;28;20045;-68
2021/01/14 11:41:00;;;;;;;11.73;4.13;;;6.90;61.00;;;;;;5003148;28;20089;-68
2021/01/14 11:43:26;;;;;;;13.07;3.93;;;6.80;61.20;;;;;;5005010;28;20519;-68
2021/01/14 11:45:51;;;;;;;10.13;4.50;;;6.80;61.50;;;;;;5004449;28;20070;-68
2021/01/14 11:48:18;;;;;;;7.67;3.73;;;6.90;61.70;;;;;;5007218;28;20060;-68
2021/01/14 11:50:43;;;;;;;10.13;3.87;;;7.00;61.60;;;;;;5001170;28;20038;-68
2021/01/14 11:53:09;;;;;;;14.57;4.80;;;7.10;61.40;;;;;;5004934;28;20533;-67
2021/01/14 11:55:34;;;;;;;11.30;4.33;;;7.90;61.60;;;;;;5008945;28;20034;-68
2021/01/14 11:58:01;;;;;;;11.83;4.33;;;7.10;61.00;;;;;;5007446;28;20022;-69
2021/01/14 12:00:27;;;;;;;8.93;3.80;;;7.10;61.00;;;;;;5008818;28;20084;-68
2021/01/14 12:02:52;;;;;;;8.60;3.10;;;7.10;60.90;;;;;;5008152;28;20029;-68
2021/01/14 12:05:18;;;;;;;9.23;3.13;;;7.20;60.80;;;;;;5003467;28;20038;-68
2021/01/14 12:07:43;;;;;;;7.97;3.20;;;7.30;60.70;;;;;;5008767;28;20113;-68
2021/01/14 12:10:09;;;;;;;8.30;3.40;;;7.30;60.40;;;;;;5006520;28;20033;-68
2021/01/14 12:12:35;;;;;;;8.80;3.87;;;7.40;60.00;;;;;;5009483;28;20065;-68
2021/01/14 12:15:04;;;;;;;8.57;3.43;;;7.40;59.60;;;;;;5010552;28;20026;-68
2021/01/14 12:17:30;;;;;;;10.23;3.60;;;7.50;59.40;;;;;;5008974;28;20030;-68
2021/01/14 12:19:56;;;;;;;9.82;3.72;;;7.40;59.40;;;;;;5009104;28;20092;-68
2021/01/14 12:22:21;;;;;;;14.00;4.20;;;7.40;59.10;;;;;;5003969;28;20045;-68
2021/01/14 12:24:47;;;;;;;9.63;4.13;;;7.40;59.20;;;;;;5010484;28;20034;-68
2021/01/14 12:27:13;;;;;;;8.40;3.33;;;7.50;59.20;;;;;;5007056;28;20156;-68
2021/01/14 12:29:38;;;;;;;7.43;3.70;;;7.50;58.80;;;;;;4990233;28;20064;-68
2021/01/14 12:32:04;;;;;;;7.97;3.67;;;7.60;57.80;;;;;;5008524;28;20420;-68
2021/01/14 12:34:30;;;;;;;9.60;4.90;;;7.60;57.60;;;;;;5008585;28;20059;-67
2021/01/14 12:36:56;;;;;;;7.83;3.43;;;7.50;58.00;;;;;;5008495;28;20399;-67
2021/01/14 12:39:23;;;;;;;10.65;4.00;;;7.50;58.20;;;;;;5010590;28;20034;-67
2021/01/14 12:41:49;;;;;;;11.97;4.47;;;7.50;57.90;;;;;;4998527;28;20552;-68
2021/01/14 12:44:14;;;;;;;7.23;3.30;;;7.40;58.10;;;;;;4999957;28;20034;-67
2021/01/14 12:46:43;;;;;;;7.17;4.10;;;7.30;58.40;;;;;;5002279;28;20062;-67
2021/01/14 12:49:09;;;;;;;10.93;3.87;;;7.20;58.50;;;;;;5002210;28;20030;-67
2021/01/14 12:51:37;;;;;;;9.10;3.33;;;7.10;58.80;;;;;;5008066;28;20034;-67
2021/01/14 12:54:03;;;;;;;8.20;4.07;;;7.00;58.90;;;;;;5008689;28;20148;-68
2021/01/14 12:56:28;;;;;;;6.60;3.40;;;6.90;58.30;;;;;;5005144;28;20030;-67
2021/01/14 12:58:54;;;;;;;8.52;3.53;;;6.80;58.40;;;;;;4995005;28;20038;-67
2021/01/14 13:01:30;;;;;;;8.93;2.83;;;6.70;58.90;;;;;;5006851;28;20034;-67
2021/01/14 13:03:57;;;;;;;7.63;2.80;;;6.80;59.10;;;;;;5007523;28;20045;-68
2021/01/14 13:06:27;;;;;;;8.50;3.07;;;6.80;58.70;;;;;;5008368;28;20041;-68